Time;durP1;ratioP1;P1;durP2;ratioP2;P2;SDS_P1;SDS_P2;PMS_P1;PMS_P2;Temp;Humidity;BMP_temperature;BMP_pressure;BME280_temperature;BME280_humidity;BME280_pressure;Samples;Min_cycle;Max_cycle;Signal;HPM_P1;HPM_P2
2023/06/06 00:02:29;;;;;;;;;;;;;;;15.19;64.02;102024.84;4941831;28;19994;-69
2023/06/06 00:05:13;;;;;;;;;;;;;;;15.17;63.94;102018.84;4947463;28;20307;-67
2023/06/06 00:07:40;;;;;;;;;;;;;;;15.13;64.27;102022.03;4934472;28;19919;-68
2023/06/06 00:16:13;;;;;;;;;;;;;;;14.98;64.61;102027.22;4940421;28;19985;-69
2023/06/06 00:21:41;;;;;;;;;;;;;;;14.91;64.29;102033.44;4943494;28;20422;-69
2023/06/06 00:24:24;;;;;;;;;;;;;;;14.86;64.31;102031.28;4943646;28;19929;-69
2023/06/06 00:26:50;;;;;;;;;;;;;;;14.83;64.77;102026.28;4941995;28;19926;-69
2023/06/06 00:29:33;;;;;;;;;;;;;;;14.79;64.83;102024.94;4943715;28;20420;-69
2023/06/06 00:35:01;;;;;;;;;;;;;;;14.70;64.64;102026.78;4942143;28;19951;-69
2023/06/06 00:40:29;;;;;;;;;;;;;;;14.61;64.91;102034.97;4946224;28;19925;-69
2023/06/06 00:48:41;;;;;;;;;;;;;;;14.50;65.24;102037.00;4935606;28;20403;-69
2023/06/06 00:56:55;;;;;;;;;;;;;;;14.41;65.70;102027.25;4938581;28;19933;-68
2023/06/06 01:05:07;;;;;;;;;;;;;;;14.33;65.99;102029.09;4944078;28;20522;-69
2023/06/06 01:10:55;;;;;;;;;;;;;;;14.23;65.77;102022.06;4941893;28;20058;-69
2023/06/06 01:13:45;;;;;;;;;;;;;;;14.17;66.12;102020.06;4943454;28;19993;-69
2023/06/06 01:24:47;;;;;;;;;;;;;;;14.03;66.53;102017.19;4948208;28;19926;-68
2023/06/06 01:35:49;;;;;;;;;;;;;;;13.87;66.73;102016.16;4948913;28;19925;-69
2023/06/06 01:41:19;;;;;;;;;;;;;;;13.75;67.14;102025.47;4943402;28;19977;-69
2023/06/06 01:46:30;;;;;;;;;;;;;;;13.68;67.28;102024.47;4943265;28;19979;-69
2023/06/06 01:49:15;;;;;;;;;;;;;;;13.65;66.94;102019.44;4945229;28;20294;-69
2023/06/06 01:51:40;;;;;;;;;;;;;;;13.64;67.35;102020.44;4944278;28;19923;-68
2023/06/06 01:54:05;;;;;;;;;;;;;;;13.61;66.94;102020.78;4944611;28;19934;-67
2023/06/06 02:07:45;;;;;;;;;;;;;;;13.45;67.74;102016.19;4946027;28;20355;-69
2023/06/06 02:13:12;;;;;;;;;;;;;;;13.39;67.82;102018.66;4941562;28;20344;-69
2023/06/06 02:27:49;;;;;;;;;;;;;;;13.21;68.18;102022.25;4945367;28;19965;-69
2023/06/06 02:32:59;;;;;;;;;;;;;;;13.15;68.49;102022.84;4945907;28;19921;-69
2023/06/06 02:35:24;;;;;;;;;;;;;;;13.13;68.47;102019.50;4939819;28;19923;-68
2023/06/06 02:49:41;;;;;;;;;;;;;;;12.98;68.69;102015.72;4943101;28;19926;-68
2023/06/06 02:52:25;;;;;;;;;;;;;;;12.94;69.01;102009.88;4941678;28;19922;-69
2023/06/06 02:55:09;;;;;;;;;;;;;;;12.92;68.93;102017.22;4934618;28;20406;-69
2023/06/06 03:00:18;;;;;;;;;;;;;;;12.85;69.05;102010.84;4940461;28;19973;-69
2023/06/06 03:03:02;;;;;;;;;;;;;;;12.82;68.98;102011.16;4944537;28;19957;-67
2023/06/06 03:05:51;;;;;;;;;;;;;;;12.79;69.20;102026.63;4942940;28;19919;-68
2023/06/06 03:20:30;;;;;;;;;;;;;;;12.67;69.76;102026.84;4937919;28;20356;-68
2023/06/06 03:31:48;;;;;;;;;;;;;;;12.59;69.70;102025.97;4938165;28;19926;-67
2023/06/06 03:34:14;;;;;;;;;;;;;;;12.58;69.88;102024.28;4943601;28;19945;-67
2023/06/06 03:39:42;;;;;;;;;;;;;;;12.56;69.75;102028.94;4937910;28;19976;-68
2023/06/06 03:48:31;;;;;;;;;;;;;;;12.55;70.12;102028.09;4941527;28;19957;-68
2023/06/06 03:50:56;;;;;;;;;;;;;;;12.55;70.54;102027.28;4948451;28;19918;-68
2023/06/06 04:10:42;;;;;;;;;;;;;;;12.48;71.20;102023.56;4948623;28;20402;-68
2023/06/06 04:13:08;;;;;;;;;;;;;;;12.48;71.35;102029.72;4945735;28;19918;-67
2023/06/06 04:15:52;;;;;;;;;;;;;;;12.47;71.43;102033.38;4939549;29;19926;-68
2023/06/06 04:35:57;;;;;;;;;;;;;;;12.45;71.93;102016.72;4945946;28;20021;-68
2023/06/06 04:41:25;;;;;;;;;;;;;;;12.54;71.78;102030.94;4942868;28;20026;-68
2023/06/06 04:56:03;;;;;;;;;;;;;;;12.66;72.25;102027.84;4948255;28;20406;-68
2023/06/06 05:07:18;;;;;;;;;;;;;;;12.85;72.79;102034.00;4945400;28;20299;-68
2023/06/06 05:18:33;;;;;;;;;;;;;;;13.00;72.75;102029.75;4947344;28;20344;-69
2023/06/06 05:33:30;;;;;;;;;;;;;;;13.22;72.52;102044.41;4944258;28;19925;-69
2023/06/06 05:38:59;;;;;;;;;;;;;;;13.30;72.79;102036.47;4939611;28;19937;-69
2023/06/06 05:44:26;;;;;;;;;;;;;;;13.39;72.52;102040.00;4944017;28;19949;-69
2023/06/06 05:47:11;;;;;;;;;;;;;;;13.44;72.28;102038.53;4949030;28;20474;-67
2023/06/06 05:49:37;;;;;;;;;;;;;;;13.51;72.48;102047.56;4949307;28;19923;-68
2023/06/06 05:55:23;;;;;;;;;;;;;;;13.65;72.05;102046.13;4943036;28;19966;-69
2023/06/06 06:09:05;;;;;;;;;;;;;;;13.91;71.42;102046.91;4939421;28;20323;-69
2023/06/06 06:20:19;;;;;;;;;;;;;;;14.15;70.99;102042.59;4937440;28;20006;-69
2023/06/06 06:22:45;;;;;;;;;;;;;;;14.20;70.91;102042.94;4941212;28;19926;-68
2023/06/06 06:25:12;;;;;;;;;;;;;;;14.24;70.33;102047.78;4939869;28;19926;-68
2023/06/06 06:27:56;;;;;;;;;;;;;;;14.29;70.54;102038.44;4947568;28;19929;-68
2023/06/06 06:44:59;;;;;;;;;;;;;;;14.71;69.69;102057.03;4948301;28;20006;-67
2023/06/06 06:53:30;;;;;;;;;;;;;;;14.85;68.94;102062.53;4944511;28;19993;-68
2023/06/06 06:56:16;;;;;;;;;;;;;;;14.93;68.78;102061.69;4947128;28;20395;-67
2023/06/06 06:59:01;;;;;;;;;;;;;;;15.02;68.84;102060.66;4943173;28;19922;-68
2023/06/06 07:01:49;;;;;;;;;;;;;;;15.09;68.12;102072.38;4946521;28;21205;-68
2023/06/06 07:07:01;;;;;;;;;;;;;;;15.17;67.73;102068.84;4941547;28;19929;-68
2023/06/06 07:21:20;;;;;;;;;;;;;;;15.43;66.70;102068.59;4942844;28;19934;-66
2023/06/06 07:23:45;;;;;;;;;;;;;;;15.46;66.54;102069.09;4949253;28;19941;-67
2023/06/06 07:40:46;;;;;;;;;;;;;;;15.92;65.97;102052.38;4946223;28;19933;-67
2023/06/06 07:43:30;;;;;;;;;;;;;;;15.98;65.84;102049.81;4942711;28;19919;-68
2023/06/06 07:45:55;;;;;;;;;;;;;;;16.03;66.04;102050.13;4937799;28;20008;-68
2023/06/06 07:48:21;;;;;;;;;;;;;;;16.11;65.55;102038.50;4941988;28;20005;-67
2023/06/06 07:59:17;;;;;;;;;;;;;;;16.40;65.30;102035.94;4938836;28;19928;-67
2023/06/06 08:10:32;;;;;;;;;;;;;;;16.72;64.37;102034.84;4942268;28;20018;-68
2023/06/06 08:13:16;;;;;;;;;;;;;;;16.83;64.72;102027.41;4939667;28;19961;-67
2023/06/06 08:18:44;;;;;;;;;;;;;;;17.11;64.09;102038.34;4940124;28;20392;-67
2023/06/06 08:24:12;;;;;;;;;;;;;;;17.31;63.51;102044.81;4938673;28;20428;-68
2023/06/06 08:35:46;;;;;;;;;;;;;;;17.85;63.13;102036.44;4941601;28;19947;-68
2023/06/06 08:38:29;;;;;;;;;;;;;;;17.98;62.60;102031.25;4939429;28;20413;-67
2023/06/06 08:41:13;;;;;;;;;;;;;;;18.15;62.57;102029.97;4944184;28;19918;-68
2023/06/06 08:50:04;;;;;;;;;;;;;;;18.78;61.89;102039.03;4942574;28;19964;-69
2023/06/06 08:55:51;;;;;;;;;;;;;;;19.08;60.09;102039.69;4947173;28;20018;-68
2023/06/06 08:58:35;;;;;;;;;;;;;;;19.28;59.32;102031.72;4943815;28;19957;-68
2023/06/06 09:21:25;;;;;;;;;;;;;;;20.68;56.21;102033.81;4941604;28;19926;-67
2023/06/06 09:24:08;;;;;;;;;;;;;;;20.86;55.07;102036.72;4943020;28;19973;-67
2023/06/06 09:29:40;;;;;;;;;;;;;;;21.24;54.41;102017.13;4940697;28;19951;-67
2023/06/06 09:38:11;;;;;;;;;;;;;;;21.72;53.68;102014.88;4941520;28;19933;-67
2023/06/06 09:41:03;;;;;;;;;;;;;;;21.80;52.62;102021.88;4944890;28;19962;-67
2023/06/06 09:46:31;;;;;;;;;;;;;;;22.12;52.38;102015.47;4938205;28;19933;-66
2023/06/06 09:52:00;;;;;;;;;;;;;;;22.47;51.81;102012.31;4937085;28;20147;-68
2023/06/06 09:54:43;;;;;;;;;;;;;;;22.59;51.75;102010.56;4940446;28;20447;-69
2023/06/06 09:57:14;;;;;;;;;;;;;;;22.62;51.63;102014.69;4946630;28;19927;-68
2023/06/06 09:59:57;;;;;;;;;;;;;;;22.71;52.10;102007.94;4935748;28;19919;-68
2023/06/06 10:05:44;;;;;;;;;;;;;;;23.00;51.63;102007.25;4947458;28;21062;-68
2023/06/06 10:08:28;;;;;;;;;;;;;;;23.16;50.57;102000.44;4940136;28;19926;-68
2023/06/06 10:11:11;;;;;;;;;;;;;;;23.28;49.96;102000.50;4944549;28;19918;-68
2023/06/06 10:16:21;;;;;;;;;;;;;;;23.56;49.71;102003.50;4946375;28;20299;-68
2023/06/06 10:18:47;;;;;;;;;;;;;;;23.67;48.69;102005.44;4949304;28;20392;-67
2023/06/06 10:42:07;;;;;;;;;;;;;;;24.66;47.22;101992.25;4934239;28;19945;-69
2023/06/06 10:44:51;;;;;;;;;;;;;;;24.78;47.21;101987.63;4943396;28;19974;-69
2023/06/06 10:50:13;;;;;;;;;;;;;;;24.96;46.70;101990.22;4937311;28;20810;-68
2023/06/06 10:58:40;;;;;;;;;;;;;;;25.26;45.14;101986.53;4941353;28;19926;-68
2023/06/06 11:01:06;;;;;;;;;;;;;;;25.30;45.00;101991.25;4945652;28;19919;-68
2023/06/06 11:03:50;;;;;;;;;;;;;;;25.36;44.83;101981.28;4934775;28;20444;-67
2023/06/06 11:09:19;;;;;;;;;;;;;;;25.49;44.47;101991.91;4935383;28;19957;-68
2023/06/06 11:15:06;;;;;;;;;;;;;;;25.68;43.86;101986.28;4943099;28;19925;-67
2023/06/06 11:17:50;;;;;;;;;;;;;;;25.78;43.78;101975.63;4940789;28;19926;-68
2023/06/06 11:25:48;;;;;;;;;;;;;;;25.81;43.17;101970.50;4942295;28;19922;-68
2023/06/06 11:28:32;;;;;;;;;;;;;;;25.85;43.28;101968.13;4941600;28;20013;-69
2023/06/06 11:30:58;;;;;;;;;;;;;;;25.89;42.79;101969.28;4941954;28;19919;-69
2023/06/06 11:36:26;;;;;;;;;;;;;;;25.94;43.02;101969.34;4934421;28;19926;-69
2023/06/06 11:39:11;;;;;;;;;;;;;;;25.94;42.95;101964.75;4942898;28;19919;-69
2023/06/06 11:53:10;;;;;;;;;;;;;;;26.23;43.10;101954.59;4942379;28;21183;-68
2023/06/06 11:55:36;;;;;;;;;;;;;;;26.31;42.69;101947.09;4944694;28;19919;-69
2023/06/06 11:58:02;;;;;;;;;;;;;;;26.41;43.29;101952.75;4947003;28;19933;-68
2023/06/06 12:00:27;;;;;;;;;;;;;;;26.49;43.12;101949.59;4934962;28;20339;-69
2023/06/06 12:02:53;;;;;;;;;;;;;;;26.64;42.60;101954.44;4940340;28;19919;-68
2023/06/06 12:05:20;;;;;;;;;;;;;;;26.71;41.71;101952.38;4934880;28;19974;-67
2023/06/06 12:07:46;;;;;;;;;;;;;;;26.74;41.52;101955.41;4939667;28;20009;-68
2023/06/06 12:10:11;;;;;;;;;;;;;;;26.77;41.50;101949.44;4943192;28;20301;-68
2023/06/06 12:12:43;;;;;;;;;;;;;;;26.84;41.60;101947.38;4933737;28;19915;-67
2023/06/06 12:15:08;;;;;;;;;;;;;;;26.90;41.57;101947.44;4935050;28;19918;-68
2023/06/06 12:17:34;;;;;;;;;;;;;;;26.97;41.60;101945.34;4941140;28;20373;-69
2023/06/06 12:20:00;;;;;;;;;;;;;;;27.02;40.90;101946.28;4940039;28;20315;-69
2023/06/06 12:22:29;;;;;;;;;;;;;;;27.07;41.30;101948.22;4941323;28;19957;-69
2023/06/06 12:24:54;;;;;;;;;;;;;;;27.17;41.27;101948.34;4939239;28;19927;-68
2023/06/06 12:27:26;;;;;;;;;;;;;;;27.22;40.72;101942.97;4944414;28;20348;-68
2023/06/06 12:29:54;;;;;;;;;;;;;;;27.29;40.73;101942.78;4942940;28;19926;-68
2023/06/06 12:32:21;;;;;;;;;;;;;;;27.35;39.95;101937.13;4932951;28;19923;-69
2023/06/06 12:34:53;;;;;;;;;;;;;;;27.38;39.28;101939.31;4942894;28;19919;-69
2023/06/06 12:37:18;;;;;;;;;;;;;;;27.44;40.11;101930.09;4941193;28;19926;-68
2023/06/06 12:39:44;;;;;;;;;;;;;;;27.53;39.44;101932.41;4939358;28;20343;-68
2023/06/06 12:42:13;;;;;;;;;;;;;;;27.59;38.88;101925.91;4942302;28;20273;-69
2023/06/06 12:44:38;;;;;;;;;;;;;;;27.65;39.00;101923.00;4934028;28;20072;-68
2023/06/06 12:47:04;;;;;;;;;;;;;;;27.71;38.98;101923.88;4940715;28;20423;-69
2023/06/06 12:49:30;;;;;;;;;;;;;;;27.87;39.57;101920.19;4939799;28;20411;-69
2023/06/06 12:51:55;;;;;;;;;;;;;;;27.89;38.70;101926.22;4940979;28;19988;-69
2023/06/06 12:54:20;;;;;;;;;;;;;;;27.82;38.84;101920.16;4946323;28;20400;-69
2023/06/06 12:56:45;;;;;;;;;;;;;;;27.82;38.40;101909.25;4943517;28;20010;-69
2023/06/06 12:59:11;;;;;;;;;;;;;;;27.90;39.12;101918.84;4936546;28;19941;-69
2023/06/06 13:01:38;;;;;;;;;;;;;;;28.04;37.99;101909.94;4938037;28;19915;-69
2023/06/06 13:04:04;;;;;;;;;;;;;;;28.09;37.63;101909.19;4931256;28;19974;-69
2023/06/06 13:06:29;;;;;;;;;;;;;;;28.12;36.95;101908.66;4939694;28;19970;-69
2023/06/06 13:08:55;;;;;;;;;;;;;;;28.15;36.81;101907.31;4935381;28;19922;-70
2023/06/06 13:11:20;;;;;;;;;;;;;;;28.19;36.74;101911.16;4940435;28;20627;-69
2023/06/06 13:13:45;;;;;;;;;;;;;;;28.26;37.21;101909.06;4942916;28;19914;-69
2023/06/06 13:16:10;;;;;;;;;;;;;;;28.33;37.38;101913.19;4949680;28;20021;-70
2023/06/06 13:18:38;;;;;;;;;;;;;;;28.40;37.27;101907.53;4939275;28;19919;-69
2023/06/06 13:21:03;;;;;;;;;;;;;;;28.45;37.58;101907.53;4944873;28;20417;-69
2023/06/06 13:23:28;;;;;;;;;;;;;;;28.50;37.26;101904.00;4942947;28;19914;-69
2023/06/06 13:25:55;;;;;;;;;;;;;;;28.55;37.25;101906.78;4938619;28;19918;-70
2023/06/06 13:28:21;;;;;;;;;;;;;;;28.38;37.28;101904.22;4942390;28;19985;-68
2023/06/06 13:30:46;;;;;;;;;;;;;;;28.18;37.15;101904.06;4939141;28;20473;-69
2023/06/06 13:33:11;;;;;;;;;;;;;;;28.03;36.97;101900.09;4947332;28;19957;-69
2023/06/06 13:35:37;;;;;;;;;;;;;;;27.91;36.54;101896.75;4940027;28;19946;-69
2023/06/06 13:38:02;;;;;;;;;;;;;;;27.85;37.20;101896.97;4943522;28;19930;-68
2023/06/06 13:40:27;;;;;;;;;;;;;;;27.96;37.27;101896.78;4946555;28;20455;-69
2023/06/06 13:42:54;;;;;;;;;;;;;;;28.13;37.74;101887.63;4941247;28;19925;-68
2023/06/06 13:45:20;;;;;;;;;;;;;;;28.18;35.62;101895.84;4937623;28;19927;-69
2023/06/06 13:47:45;;;;;;;;;;;;;;;28.20;35.19;101893.69;4938272;28;19922;-69
2023/06/06 13:50:10;;;;;;;;;;;;;;;28.06;34.95;101888.69;4942599;28;19960;-69
2023/06/06 13:52:37;;;;;;;;;;;;;;;27.98;35.26;101888.31;4948264;28;19914;-69
2023/06/06 13:55:04;;;;;;;;;;;;;;;27.86;34.90;101891.25;4949443;28;19926;-69
2023/06/06 13:57:31;;;;;;;;;;;;;;;27.69;35.31;101882.34;4945387;28;19977;-70
2023/06/06 13:59:56;;;;;;;;;;;;;;;27.72;35.68;101881.84;4944190;28;20013;-69
2023/06/06 14:02:21;;;;;;;;;;;;;;;27.92;35.40;101876.53;4941501;28;20070;-69
2023/06/06 14:04:46;;;;;;;;;;;;;;;28.00;35.29;101878.78;4937458;28;19961;-69
2023/06/06 14:07:14;;;;;;;;;;;;;;;27.98;34.87;101875.50;4940892;28;20376;-70
2023/06/06 14:09:39;;;;;;;;;;;;;;;28.15;34.72;101880.00;4932629;28;19946;-70
2023/06/06 14:12:05;;;;;;;;;;;;;;;28.36;34.88;101877.16;4937058;28;20280;-69
2023/06/06 14:14:30;;;;;;;;;;;;;;;28.60;34.65;101874.00;4936123;28;19923;-68
2023/06/06 14:16:55;;;;;;;;;;;;;;;28.75;33.63;101863.13;4933281;28;19954;-68
2023/06/06 14:19:37;;;;;;;;;;;;;;;28.89;34.03;101871.69;4934963;28;19926;-68
2023/06/06 14:22:24;;;;;;;;;;;;;;;29.04;33.98;101874.47;4936506;28;20015;-69
2023/06/06 14:24:50;;;;;;;;;;;;;;;29.19;33.75;101871.78;4938115;28;19923;-68
2023/06/06 14:27:15;;;;;;;;;;;;;;;29.33;33.12;101868.53;4934278;28;19970;-68
2023/06/06 14:29:41;;;;;;;;;;;;;;;29.48;32.72;101871.31;4935137;28;20013;-69
2023/06/06 14:32:11;;;;;;;;;;;;;;;29.56;32.70;101868.06;4941692;28;19918;-69
2023/06/06 14:34:39;;;;;;;;;;;;;;;29.70;32.43;101863.66;4941933;28;19925;-70
2023/06/06 14:37:06;;;;;;;;;;;;;;;29.82;31.66;101871.63;4934450;28;20007;-68
2023/06/06 14:39:31;;;;;;;;;;;;;;;29.86;31.78;101868.03;4939751;28;19926;-69
2023/06/06 14:41:56;;;;;;;;;;;;;;;29.94;30.97;101858.44;4949161;28;19919;-70
2023/06/06 14:44:22;;;;;;;;;;;;;;;30.02;31.10;101859.78;4936931;28;19934;-69
2023/06/06 14:46:48;;;;;;;;;;;;;;;30.03;30.89;101859.56;4942685;28;19919;-69
2023/06/06 14:49:13;;;;;;;;;;;;;;;30.08;31.63;101858.75;4942121;28;19927;-70
2023/06/06 14:51:38;;;;;;;;;;;;;;;30.18;32.16;101856.78;4938042;28;19922;-71
2023/06/06 14:54:03;;;;;;;;;;;;;;;30.31;32.41;101855.38;4936818;28;20001;-70
2023/06/06 14:56:28;;;;;;;;;;;;;;;30.45;32.74;101856.44;4942183;28;19922;-71
2023/06/06 14:58:54;;;;;;;;;;;;;;;30.56;32.16;101861.88;4942263;28;19919;-69
2023/06/06 15:01:19;;;;;;;;;;;;;;;30.70;31.82;101855.56;4939864;28;19980;-70
2023/06/06 15:03:44;;;;;;;;;;;;;;;30.91;31.91;101861.75;4937938;28;19938;-69
2023/06/06 15:06:09;;;;;;;;;;;;;;;31.08;30.75;101848.50;4943837;28;19973;-68
2023/06/06 15:08:34;;;;;;;;;;;;;;;31.22;29.65;101854.19;4937778;28;19953;-69
2023/06/06 15:11:00;;;;;;;;;;;;;;;31.33;29.35;101855.78;4941586;28;19926;-67
2023/06/06 15:13:25;;;;;;;;;;;;;;;31.42;30.10;101856.00;4943383;28;20289;-69
2023/06/06 15:15:50;;;;;;;;;;;;;;;31.16;30.75;101844.34;4938985;28;19930;-69
2023/06/06 15:18:15;;;;;;;;;;;;;;;31.73;31.25;101851.09;4942793;28;20348;-68
2023/06/06 15:20:41;;;;;;;;;;;;;;;33.55;30.47;101853.56;4942403;28;20412;-70
2023/06/06 15:23:07;;;;;;;;;;;;;;;35.49;28.22;101842.16;4941352;28;19919;-69
2023/06/06 15:25:32;;;;;;;;;;;;;;;35.74;26.74;101846.22;4948477;28;19923;-70
2023/06/06 15:27:57;;;;;;;;;;;;;;;34.73;26.36;101844.72;4937117;28;19918;-69
2023/06/06 15:30:22;;;;;;;;;;;;;;;33.78;26.81;101845.44;4934993;28;19923;-69
2023/06/06 15:32:48;;;;;;;;;;;;;;;32.86;26.93;101841.34;4943650;28;20415;-69
2023/06/06 15:35:13;;;;;;;;;;;;;;;32.00;27.90;101840.41;4934220;28;19934;-69
2023/06/06 15:37:38;;;;;;;;;;;;;;;31.30;28.33;101844.56;4936376;28;20027;-69
2023/06/06 15:40:03;;;;;;;;;;;;;;;30.68;28.67;101835.00;4942675;28;19926;-70
2023/06/06 15:42:29;;;;;;;;;;;;;;;30.17;28.99;101835.16;4945237;28;20061;-70
2023/06/06 15:44:56;;;;;;;;;;;;;;;29.75;30.21;101833.53;4931738;28;20136;-70
2023/06/06 15:47:21;;;;;;;;;;;;;;;29.46;30.79;101830.53;4939999;28;20013;-72
2023/06/06 15:49:47;;;;;;;;;;;;;;;29.20;31.20;101826.09;4945255;28;19954;-74
2023/06/06 15:52:12;;;;;;;;;;;;;;;28.97;31.77;101819.22;4936133;28;19919;-73
2023/06/06 15:54:37;;;;;;;;;;;;;;;29.51;32.73;101824.25;4940144;28;20002;-72
2023/06/06 15:57:02;;;;;;;;;;;;;;;30.68;32.65;101824.88;4931404;28;19926;-73
2023/06/06 15:59:28;;;;;;;;;;;;;;;31.73;32.33;101824.44;4937181;28;19962;-73
2023/06/06 16:01:53;;;;;;;;;;;;;;;32.34;31.40;101828.50;4944406;28;20295;-73
2023/06/06 16:04:22;;;;;;;;;;;;;;;32.94;30.68;101824.16;4934344;28;20409;-73
2023/06/06 16:06:47;;;;;;;;;;;;;;;33.88;29.15;101828.78;4931521;29;19919;-72
2023/06/06 16:09:12;;;;;;;;;;;;;;;33.88;28.71;101828.78;4934089;28;19925;-74
2023/06/06 16:11:37;;;;;;;;;;;;;;;33.10;28.92;101824.78;4941020;28;19922;-72
2023/06/06 16:14:03;;;;;;;;;;;;;;;32.23;29.36;101825.03;4945351;28;20033;-73
2023/06/06 16:16:28;;;;;;;;;;;;;;;31.40;30.20;101819.75;4935033;28;19922;-72
2023/06/06 16:18:53;;;;;;;;;;;;;;;30.68;30.74;101818.56;4939993;28;19990;-72
2023/06/06 16:21:19;;;;;;;;;;;;;;;30.09;31.33;101811.91;4941762;28;19937;-72
2023/06/06 16:23:44;;;;;;;;;;;;;;;29.55;32.29;101817.94;4936911;28;19914;-72
2023/06/06 16:26:09;;;;;;;;;;;;;;;29.06;32.99;101812.13;4944229;28;19918;-72
2023/06/06 16:28:34;;;;;;;;;;;;;;;28.71;33.94;101812.81;4935089;28;19925;-71
2023/06/06 16:30:59;;;;;;;;;;;;;;;28.46;34.29;101808.06;4934879;28;20603;-72
2023/06/06 16:33:25;;;;;;;;;;;;;;;28.27;35.29;101807.69;4939443;28;19970;-72
2023/06/06 16:35:51;;;;;;;;;;;;;;;27.99;35.52;101808.88;4943705;28;19926;-73
2023/06/06 16:38:16;;;;;;;;;;;;;;;27.85;36.67;101804.97;4934582;28;19926;-71
2023/06/06 16:40:41;;;;;;;;;;;;;;;27.74;37.17;101805.97;4949134;28;20647;-72
2023/06/06 16:43:07;;;;;;;;;;;;;;;27.70;37.80;101807.56;4933264;28;19915;-72
2023/06/06 16:45:33;;;;;;;;;;;;;;;27.61;38.25;101809.94;4948193;28;19925;-71
2023/06/06 16:47:58;;;;;;;;;;;;;;;27.53;38.58;101809.59;4944005;28;19918;-72
2023/06/06 16:50:23;;;;;;;;;;;;;;;27.40;38.60;101813.56;4947668;28;19929;-73
2023/06/06 16:52:49;;;;;;;;;;;;;;;27.25;38.92;101814.25;4944831;28;19922;-71
2023/06/06 16:55:14;;;;;;;;;;;;;;;27.10;39.34;101814.09;4939943;28;19922;-71
2023/06/06 16:57:39;;;;;;;;;;;;;;;26.94;39.39;101824.00;4939700;28;19923;-71
2023/06/06 17:00:05;;;;;;;;;;;;;;;26.88;39.83;101821.44;4940488;28;19950;-72
2023/06/06 17:02:31;;;;;;;;;;;;;;;26.91;40.09;101815.53;4944115;28;19926;-72
2023/06/06 17:04:56;;;;;;;;;;;;;;;26.95;40.39;101814.75;4948863;28;19928;-71
2023/06/06 17:07:22;;;;;;;;;;;;;;;26.99;40.44;101817.81;4934499;28;19925;-72
2023/06/06 17:09:47;;;;;;;;;;;;;;;26.93;40.02;101818.81;4939463;28;20296;-71
2023/06/06 17:12:12;;;;;;;;;;;;;;;26.91;40.33;101815.53;4933463;28;19954;-72
2023/06/06 17:14:37;;;;;;;;;;;;;;;26.90;40.43;101825.59;4941502;28;19919;-73
2023/06/06 17:17:03;;;;;;;;;;;;;;;26.79;40.36;101812.91;4934147;28;19926;-72
2023/06/06 17:19:28;;;;;;;;;;;;;;;26.69;40.41;101818.25;4945255;28;19923;-72
2023/06/06 17:21:53;;;;;;;;;;;;;;;26.61;40.74;101816.81;4946259;28;19924;-72
2023/06/06 17:24:18;;;;;;;;;;;;;;;26.51;40.62;101827.56;4943870;28;19922;-69
2023/06/06 17:26:43;;;;;;;;;;;;;;;26.46;40.70;101822.06;4938755;28;19915;-71
2023/06/06 17:29:09;;;;;;;;;;;;;;;26.35;40.62;101815.66;4941777;28;19918;-73
2023/06/06 17:31:34;;;;;;;;;;;;;;;26.17;40.83;101824.91;4945609;28;20381;-71
2023/06/06 17:33:59;;;;;;;;;;;;;;;25.97;41.28;101819.16;4939015;28;19969;-70
2023/06/06 17:36:24;;;;;;;;;;;;;;;25.80;41.44;101826.53;4944725;28;20464;-71
2023/06/06 17:38:50;;;;;;;;;;;;;;;25.60;41.95;101827.78;4936879;28;20411;-70
2023/06/06 17:41:15;;;;;;;;;;;;;;;25.44;42.39;101823.16;4947481;28;19918;-71
2023/06/06 17:43:41;;;;;;;;;;;;;;;25.32;42.68;101827.84;4934974;28;19965;-70
2023/06/06 17:46:06;;;;;;;;;;;;;;;25.19;42.90;101828.16;4941207;28;20391;-71
2023/06/06 17:48:34;;;;;;;;;;;;;;;25.07;43.52;101821.94;4935886;28;19933;-69
2023/06/06 17:51:00;;;;;;;;;;;;;;;24.94;43.98;101828.47;4935500;29;19973;-69
2023/06/06 17:53:25;;;;;;;;;;;;;;;24.85;44.17;101827.19;4946611;28;20400;-68
2023/06/06 17:55:51;;;;;;;;;;;;;;;24.76;44.41;101836.78;4936716;28;19921;-68
2023/06/06 17:58:16;;;;;;;;;;;;;;;24.63;44.48;101838.72;4940187;28;19919;-69
2023/06/06 18:00:42;;;;;;;;;;;;;;;24.55;44.47;101841.78;4946319;28;20375;-70
2023/06/06 18:03:07;;;;;;;;;;;;;;;24.47;44.81;101841.34;4940886;28;19918;-69
2023/06/06 18:05:35;;;;;;;;;;;;;;;24.37;45.42;101831.91;4939782;28;19922;-68
2023/06/06 18:08:00;;;;;;;;;;;;;;;24.26;45.53;101832.69;4937890;28;19919;-69
2023/06/06 18:10:25;;;;;;;;;;;;;;;24.16;45.76;101829.75;4938575;28;19918;-69
2023/06/06 18:12:51;;;;;;;;;;;;;;;24.11;45.79;101835.09;4937250;28;19966;-70
2023/06/06 18:15:16;;;;;;;;;;;;;;;24.07;45.99;101837.44;4945323;28;20361;-70
2023/06/06 18:17:42;;;;;;;;;;;;;;;24.01;45.96;101826.72;4939895;28;19926;-69
2023/06/06 18:20:12;;;;;;;;;;;;;;;23.98;46.21;101844.25;4934837;28;19919;-70
2023/06/06 18:22:37;;;;;;;;;;;;;;;23.94;46.33;101839.53;4942810;28;19918;-68
2023/06/06 18:25:02;;;;;;;;;;;;;;;23.91;46.12;101840.84;4940161;28;19926;-70
2023/06/06 18:27:28;;;;;;;;;;;;;;;23.85;46.57;101847.22;4945253;28;20380;-70
2023/06/06 18:29:53;;;;;;;;;;;;;;;23.76;46.55;101843.19;4945839;28;19926;-68
2023/06/06 18:32:18;;;;;;;;;;;;;;;23.65;46.98;101846.69;4938405;28;19918;-70
2023/06/06 18:34:44;;;;;;;;;;;;;;;23.57;46.96;101841.63;4947538;28;19926;-69
2023/06/06 18:37:09;;;;;;;;;;;;;;;23.49;47.28;101842.75;4938145;28;19927;-69
2023/06/06 18:39:34;;;;;;;;;;;;;;;23.39;47.29;101843.31;4938302;28;19922;-70
2023/06/06 18:42:03;;;;;;;;;;;;;;;23.33;47.52;101855.06;4946786;28;19922;-70
2023/06/06 18:44:28;;;;;;;;;;;;;;;23.28;48.05;101857.66;4953481;28;19933;-69
2023/06/06 18:46:53;;;;;;;;;;;;;;;23.24;48.04;101861.88;4945517;28;19926;-67
2023/06/06 18:49:18;;;;;;;;;;;;;;;23.21;47.96;101856.09;4935377;28;20295;-70
2023/06/06 18:51:47;;;;;;;;;;;;;;;23.16;48.12;101860.31;4939090;28;19925;-70
2023/06/06 18:54:12;;;;;;;;;;;;;;;23.09;48.39;101873.13;4936788;28;19918;-70
2023/06/06 18:56:38;;;;;;;;;;;;;;;23.02;48.50;101866.97;4946647;28;20340;-70
2023/06/06 18:59:07;;;;;;;;;;;;;;;22.96;48.73;101872.47;4940686;28;20013;-70
2023/06/06 19:01:32;;;;;;;;;;;;;;;22.90;48.69;101882.34;4938552;28;19989;-70
2023/06/06 19:03:58;;;;;;;;;;;;;;;22.82;49.04;101874.50;4940155;28;20081;-69
2023/06/06 19:06:23;;;;;;;;;;;;;;;22.76;49.11;101883.50;4939253;28;19965;-69
2023/06/06 19:08:50;;;;;;;;;;;;;;;22.69;48.83;101877.34;4933541;28;20379;-70
2023/06/06 19:11:15;;;;;;;;;;;;;;;22.64;49.39;101877.19;4936280;28;20358;-69
2023/06/06 19:13:41;;;;;;;;;;;;;;;22.55;49.59;101877.50;4945900;28;20548;-69
2023/06/06 19:16:06;;;;;;;;;;;;;;;22.51;49.56;101875.44;4939466;28;19949;-69
2023/06/06 19:18:31;;;;;;;;;;;;;;;22.47;49.81;101885.91;4943845;28;19969;-69
2023/06/06 19:20:56;;;;;;;;;;;;;;;22.43;49.98;101886.56;4940005;28;19973;-68
2023/06/06 19:23:21;;;;;;;;;;;;;;;22.35;49.92;101892.28;4935586;28;20622;-69
2023/06/06 19:25:46;;;;;;;;;;;;;;;22.25;50.32;101896.28;4943736;28;19962;-69
2023/06/06 19:28:12;;;;;;;;;;;;;;;22.16;50.45;101903.06;4938840;28;19930;-69
2023/06/06 19:30:37;;;;;;;;;;;;;;;22.07;50.61;101901.69;4934200;28;19919;-70
2023/06/06 19:33:02;;;;;;;;;;;;;;;22.01;50.93;101897.13;4939998;28;19922;-68
2023/06/06 19:35:27;;;;;;;;;;;;;;;21.95;51.03;101900.69;4937038;28;19915;-69
2023/06/06 19:37:53;;;;;;;;;;;;;;;21.89;51.14;101901.56;4939540;28;20277;-69
2023/06/06 19:40:22;;;;;;;;;;;;;;;21.81;51.20;101905.38;4942857;28;19965;-68
2023/06/06 19:42:47;;;;;;;;;;;;;;;21.77;51.18;101909.56;4935860;28;20390;-69
2023/06/06 19:45:13;;;;;;;;;;;;;;;21.71;51.30;101906.94;4945062;28;19965;-69
2023/06/06 19:47:38;;;;;;;;;;;;;;;21.67;51.43;101908.38;4934973;28;20005;-69
2023/06/06 19:50:04;;;;;;;;;;;;;;;21.61;51.49;101904.69;4938983;28;19925;-69
2023/06/06 19:52:29;;;;;;;;;;;;;;;21.52;51.67;101909.53;4941497;28;19923;-69